createdAt,value
2023-04-03T00:01:47.864Z,1.54
2023-04-03T00:04:14.257Z,1.41
2023-04-03T00:06:40.591Z,1.48
2023-04-03T00:09:08.684Z,1.38
2023-04-03T00:11:35.738Z,1.31
2023-04-03T00:14:02.053Z,1.26
2023-04-03T00:16:28.393Z,1.32
2023-04-03T00:18:54.831Z,1.28
2023-04-03T00:21:21.129Z,1.31
2023-04-03T00:23:47.456Z,1.27
2023-04-03T00:26:13.825Z,1.39
2023-04-03T00:28:40.388Z,1.15
2023-04-03T00:31:06.743Z,1.20
2023-04-03T00:33:33.121Z,1.31
2023-04-03T00:35:59.505Z,1.16
2023-04-03T00:38:25.952Z,1.06
2023-04-03T00:40:52.300Z,1.00
2023-04-03T00:43:24.432Z,0.98
2023-04-03T00:45:53.735Z,0.99
2023-04-03T00:48:35.431Z,0.86
2023-04-03T00:51:04.573Z,0.97
2023-04-03T00:53:36.389Z,0.87
2023-04-03T00:56:06.806Z,0.76
2023-04-03T00:58:43.026Z,0.70
2023-04-03T01:01:15.009Z,1.04
2023-04-03T01:03:41.458Z,0.68
2023-04-03T01:06:08.039Z,0.56
2023-04-03T01:08:35.745Z,0.41
2023-04-03T01:11:02.075Z,0.36
2023-04-03T01:13:33.801Z,0.25
2023-04-03T01:16:05.412Z,0.11
2023-04-03T01:18:33.116Z,0.00
2023-04-03T01:21:17.309Z,-0.15
2023-04-03T01:24:05.500Z,-0.07
2023-04-03T01:26:32.765Z,0.10
2023-04-03T01:29:00.449Z,0.16
2023-04-03T01:31:53.286Z,0.29
2023-04-03T01:34:20.055Z,0.29
2023-04-03T01:36:46.373Z,0.36
2023-04-03T01:39:12.911Z,0.33
2023-04-03T01:41:39.324Z,0.31
2023-04-03T01:44:06.174Z,0.19
2023-04-03T01:46:32.901Z,0.19
2023-04-03T01:48:59.218Z,0.15
2023-04-03T01:51:25.588Z,0.18
2023-04-03T01:53:51.932Z,0.16
2023-04-03T01:56:18.437Z,0.18
2023-04-03T01:58:44.747Z,0.14
2023-04-03T02:01:11.057Z,0.01
2023-04-03T02:03:37.464Z,-0.17
2023-04-03T02:06:03.854Z,-0.29
2023-04-03T02:08:30.206Z,-0.33
2023-04-03T02:10:56.523Z,-0.39
2023-04-03T02:13:22.850Z,-0.49
2023-04-03T02:15:49.181Z,-0.52
2023-04-03T02:18:15.545Z,-0.56
2023-04-03T02:20:41.873Z,-0.55
2023-04-03T02:23:08.248Z,-0.42
2023-04-03T02:25:36.625Z,-0.40
2023-04-03T02:28:04.487Z,-0.44
2023-04-03T02:30:30.805Z,-0.65
2023-04-03T02:32:57.158Z,-0.59
2023-04-03T02:35:23.548Z,-0.50
2023-04-03T02:37:49.872Z,-0.62
2023-04-03T02:40:16.207Z,-0.81
2023-04-03T02:42:42.506Z,-0.92
2023-04-03T02:45:09.129Z,-1.09
2023-04-03T02:47:35.423Z,-0.89
2023-04-03T02:50:01.751Z,-0.77
2023-04-03T02:52:28.091Z,-0.81
2023-04-03T02:54:54.401Z,-0.68
2023-04-03T02:57:20.777Z,-0.69
2023-04-03T02:59:47.184Z,-0.84
2023-04-03T03:02:13.479Z,-0.63
2023-04-03T03:04:39.841Z,-0.70
2023-04-03T03:07:06.205Z,-0.62
2023-04-03T03:09:32.976Z,-0.60
2023-04-03T03:11:59.375Z,-0.75
2023-04-03T03:14:25.725Z,-0.57
2023-04-03T03:16:52.062Z,-0.85
2023-04-03T03:19:18.360Z,-1.07
2023-04-03T03:21:44.700Z,-0.94
2023-04-03T03:24:10.989Z,-0.81
2023-04-03T03:26:37.299Z,-0.94
2023-04-03T03:29:03.708Z,-1.04
2023-04-03T03:31:30.204Z,-1.08
2023-04-03T03:33:56.518Z,-0.97
2023-04-03T03:36:23.002Z,-1.10
2023-04-03T03:38:49.349Z,-1.16
2023-04-03T03:41:15.674Z,-1.03
2023-04-03T03:43:41.990Z,-1.08
2023-04-03T03:46:08.330Z,-1.17
2023-04-03T03:48:34.692Z,-1.15
2023-04-03T03:51:01.025Z,-1.10
2023-04-03T03:53:27.323Z,-1.17
2023-04-03T03:55:53.636Z,-1.04
2023-04-03T03:58:20.012Z,-1.20
2023-04-03T04:00:46.329Z,-1.26
2023-04-03T04:03:12.705Z,-1.23
2023-04-03T04:05:39.372Z,-1.31
2023-04-03T04:08:06.243Z,-1.30
2023-04-03T04:10:32.791Z,-1.41
2023-04-03T04:12:59.102Z,-1.44
2023-04-03T04:15:25.402Z,-1.48
2023-04-03T04:17:52.025Z,-1.46
2023-04-03T04:20:18.358Z,-1.51
2023-04-03T04:22:44.684Z,-1.24
2023-04-03T04:25:11.167Z,-1.54
2023-04-03T04:27:37.557Z,-1.68
2023-04-03T04:30:04.791Z,-1.50
2023-04-03T04:32:31.173Z,-1.62
2023-04-03T04:34:57.578Z,-1.55
2023-04-03T04:37:23.914Z,-1.70
2023-04-03T04:39:50.282Z,-1.86
2023-04-03T04:42:17.838Z,-1.92
2023-04-03T04:44:44.429Z,-1.91
2023-04-03T04:47:10.745Z,-1.89
2023-04-03T04:49:37.076Z,-1.85
2023-04-03T04:52:03.401Z,-1.68
2023-04-03T04:54:29.821Z,-1.69
2023-04-03T04:56:56.236Z,-1.80
2023-04-03T04:59:22.679Z,-1.72
2023-04-03T05:01:49.035Z,-1.62
2023-04-03T05:04:15.429Z,-1.78
2023-04-03T05:06:42.148Z,-1.86
2023-04-03T05:09:08.491Z,-1.94
2023-04-03T05:11:34.797Z,-1.94
2023-04-03T05:14:01.120Z,-1.89
2023-04-03T05:16:27.445Z,-1.94
2023-04-03T05:18:53.776Z,-1.94
2023-04-03T05:21:20.108Z,-1.98
2023-04-03T05:23:46.404Z,-1.82
2023-04-03T05:26:12.948Z,-1.46
2023-04-03T05:28:39.340Z,-1.68
2023-04-03T05:31:05.756Z,-1.61
2023-04-03T05:33:32.071Z,-1.77
2023-04-03T05:36:03.781Z,-1.52
2023-04-03T05:38:30.404Z,-1.57
2023-04-03T05:40:56.784Z,-1.63
2023-04-03T05:43:23.090Z,-1.29
2023-04-03T05:45:49.430Z,-1.53
2023-04-03T05:48:15.785Z,-1.57
2023-04-03T05:50:42.311Z,-1.34
2023-04-03T05:53:16.619Z,-1.42
2023-04-03T05:55:42.918Z,-1.17
2023-04-03T05:58:11.507Z,-1.21
2023-04-03T06:00:38.107Z,-1.27
2023-04-03T06:03:04.556Z,-0.90
2023-04-03T06:05:30.984Z,-0.93
2023-04-03T06:07:57.315Z,-0.88
2023-04-03T06:10:23.739Z,-0.35
2023-04-03T06:12:51.161Z,0.63
2023-04-03T06:15:17.882Z,0.89
2023-04-03T06:17:44.403Z,0.88
2023-04-03T06:20:11.396Z,1.20
2023-04-03T06:22:37.891Z,0.91
2023-04-03T06:25:04.898Z,0.67
2023-04-03T06:27:31.444Z,1.41
2023-04-03T06:29:57.739Z,1.47
2023-04-03T06:32:24.294Z,1.95
2023-04-03T06:34:50.585Z,1.53
2023-04-03T06:37:21.981Z,1.90
2023-04-03T06:39:48.800Z,1.19
2023-04-03T06:42:15.116Z,1.64
2023-04-03T06:44:41.423Z,1.78
2023-04-03T06:47:07.730Z,1.35
2023-04-03T06:49:34.030Z,1.26
2023-04-03T06:52:01.728Z,1.80
2023-04-03T06:54:28.894Z,1.54
2023-04-03T06:56:55.256Z,1.52
2023-04-03T06:59:21.577Z,1.08
2023-04-03T07:01:47.913Z,1.50
2023-04-03T07:04:14.245Z,1.25
2023-04-03T07:06:40.899Z,1.26
2023-04-03T07:09:07.207Z,1.34
2023-04-03T07:11:33.518Z,1.73
2023-04-03T07:13:59.829Z,2.06
2023-04-03T07:16:26.185Z,2.07
2023-04-03T07:18:52.547Z,2.08
2023-04-03T07:21:18.932Z,1.84
2023-04-03T07:23:45.329Z,1.92
2023-04-03T07:26:11.776Z,2.28
2023-04-03T07:28:38.180Z,2.17
2023-04-03T07:31:11.043Z,2.31
2023-04-03T07:33:38.240Z,1.72
2023-04-03T07:36:06.505Z,2.10
2023-04-03T07:38:32.844Z,2.47
2023-04-03T07:40:59.166Z,2.46
2023-04-03T07:43:25.688Z,2.67
2023-04-03T07:45:52.141Z,2.93
2023-04-03T07:48:23.310Z,2.41
2023-04-03T07:50:50.009Z,2.48
2023-04-03T07:53:16.556Z,2.63
2023-04-03T07:55:43.369Z,2.55
2023-04-03T07:58:15.453Z,2.45
2023-04-03T08:00:41.824Z,3.06
2023-04-03T08:03:12.083Z,3.35
2023-04-03T08:05:40.555Z,2.82
2023-04-03T08:08:07.347Z,3.29
2023-04-03T08:10:34.632Z,3.56
2023-04-03T08:13:02.068Z,3.35
2023-04-03T08:15:28.712Z,3.13
2023-04-03T08:17:55.506Z,3.41
2023-04-03T08:20:21.918Z,3.36
2023-04-03T08:22:48.305Z,3.23
2023-04-03T08:25:14.680Z,3.04
2023-04-03T08:27:40.985Z,3.01
2023-04-03T08:30:08.344Z,2.74
2023-04-03T08:32:35.108Z,3.16
2023-04-03T08:35:01.450Z,3.04
2023-04-03T08:37:27.770Z,3.20
2023-04-03T08:39:54.161Z,3.44
2023-04-03T08:42:42.915Z,3.14
2023-04-03T08:45:34.309Z,3.13
2023-04-03T08:48:08.037Z,3.59
2023-04-03T08:50:40.283Z,3.42
2023-04-03T08:53:12.756Z,3.24
2023-04-03T08:55:44.385Z,3.48
2023-04-03T08:58:24.467Z,3.62
2023-04-03T09:00:52.097Z,3.72
2023-04-03T09:03:20.917Z,3.47
2023-04-03T09:05:57.208Z,3.88
2023-04-03T09:08:38.044Z,4.03
2023-04-03T09:11:12.482Z,3.71
2023-04-03T09:14:02.652Z,3.62
2023-04-03T09:16:34.550Z,3.74
2023-04-03T09:19:22.587Z,3.43
2023-04-03T09:21:48.916Z,3.53
2023-04-03T09:24:18.624Z,3.98
2023-04-03T09:26:52.026Z,4.44
2023-04-03T09:29:20.684Z,4.67
2023-04-03T09:31:49.666Z,4.92
2023-04-03T09:34:23.287Z,5.05
2023-04-03T09:36:52.544Z,5.42
2023-04-03T09:39:25.008Z,4.81
2023-04-03T09:42:27.221Z,5.24
2023-04-03T09:45:01.311Z,5.56
2023-04-03T09:47:32.830Z,5.60
2023-04-03T09:50:14.316Z,5.41
2023-04-03T09:52:46.356Z,4.72
2023-04-03T09:55:20.581Z,4.66
2023-04-03T09:57:47.524Z,4.79
2023-04-03T10:00:26.941Z,4.23
2023-04-03T10:02:55.952Z,4.19
2023-04-03T10:05:38.185Z,4.49
2023-04-03T10:08:26.512Z,4.57
2023-04-03T10:11:13.937Z,4.75
2023-04-03T10:13:57.783Z,4.74
2023-04-03T10:16:38.921Z,5.58
2023-04-03T10:19:23.155Z,5.99
2023-04-03T10:21:57.478Z,6.11
2023-04-03T10:24:48.457Z,5.97
2023-04-03T10:27:27.378Z,4.34
2023-04-03T10:30:23.617Z,4.34
2023-04-03T10:33:14.140Z,4.51
2023-04-03T10:35:50.109Z,4.44
2023-04-03T10:38:29.457Z,4.35
2023-04-03T10:41:05.839Z,4.71
2023-04-03T10:43:53.568Z,4.81
2023-04-03T10:46:28.836Z,4.66
2023-04-03T10:49:06.904Z,4.85
2023-04-03T10:52:11.870Z,5.91
2023-04-03T10:54:50.497Z,6.57
2023-04-03T10:57:17.273Z,6.77
2023-04-03T10:59:54.269Z,7.18
2023-04-03T11:02:34.027Z,6.97
2023-04-03T11:05:08.338Z,6.32
2023-04-03T11:07:39.464Z,6.63
2023-04-03T11:10:14.751Z,6.46
2023-04-03T11:12:53.629Z,6.43
2023-04-03T11:15:24.254Z,6.32
2023-04-03T11:18:01.769Z,6.20
2023-04-03T11:20:31.358Z,6.81
2023-04-03T11:23:45.978Z,6.32
2023-04-03T11:26:17.068Z,6.35
2023-04-03T11:28:43.707Z,6.29
2023-04-03T11:31:44.468Z,6.38
2023-04-03T11:34:38.490Z,5.77
2023-04-03T11:37:13.343Z,5.49
2023-04-03T11:39:41.188Z,5.25
2023-04-03T11:42:26.031Z,5.26
2023-04-03T11:44:52.456Z,5.58
2023-04-03T11:47:49.718Z,5.60
2023-04-03T11:50:34.586Z,5.35
2023-04-03T11:53:04.667Z,5.74
2023-04-03T11:55:30.915Z,5.84
2023-04-03T11:58:00.012Z,6.26
2023-04-03T12:00:54.841Z,7.21
2023-04-03T12:03:24.074Z,7.57
2023-04-03T12:06:11.552Z,7.84
2023-04-03T12:08:40.635Z,6.90
2023-04-03T12:11:10.147Z,6.55
2023-04-03T12:13:42.227Z,5.40
2023-04-03T12:16:40.216Z,5.45
2023-04-03T12:19:15.411Z,5.88
2023-04-03T12:21:44.740Z,6.03
2023-04-03T12:24:11.057Z,6.20
2023-04-03T12:27:05.291Z,6.44
2023-04-03T12:29:46.902Z,5.74
2023-04-03T12:32:40.896Z,5.50
2023-04-03T12:35:30.385Z,6.27
2023-04-03T12:38:18.880Z,6.95
2023-04-03T12:40:51.100Z,6.57
2023-04-03T12:43:32.754Z,7.43
2023-04-03T12:45:59.103Z,8.07
2023-04-03T12:48:27.951Z,8.58
2023-04-03T12:50:55.660Z,8.91
2023-04-03T12:53:49.437Z,8.04
2023-04-03T12:56:30.397Z,8.08
2023-04-03T12:59:33.763Z,8.14
2023-04-03T13:02:01.938Z,9.14
2023-04-03T13:04:31.527Z,8.74
2023-04-03T13:06:58.772Z,8.68
2023-04-03T13:09:32.314Z,7.64
2023-04-03T13:12:00.482Z,6.51
2023-04-03T13:14:28.324Z,7.30
2023-04-03T13:17:16.968Z,7.88
2023-04-03T13:19:45.519Z,7.11
2023-04-03T13:22:40.730Z,7.53
2023-04-03T13:25:11.655Z,8.15
2023-04-03T13:27:39.780Z,7.56
2023-04-03T13:30:06.977Z,6.62
2023-04-03T13:32:33.443Z,6.27
2023-04-03T13:35:11.763Z,6.36
2023-04-03T13:37:56.591Z,6.60
2023-04-03T13:40:22.945Z,6.19
2023-04-03T13:43:06.946Z,6.14
2023-04-03T13:45:35.724Z,6.12
2023-04-03T13:48:35.413Z,6.29
2023-04-03T13:51:17.405Z,6.47
2023-04-03T13:53:54.641Z,6.09
2023-04-03T13:56:47.310Z,5.93
2023-04-03T13:59:13.584Z,6.10
2023-04-03T14:01:55.522Z,5.63
2023-04-03T14:04:28.299Z,5.72
2023-04-03T14:06:55.486Z,5.66
2023-04-03T14:09:23.524Z,5.95
2023-04-03T14:11:53.179Z,6.64
2023-04-03T14:14:24.409Z,7.04
2023-04-03T14:16:56.872Z,7.25
2023-04-03T14:19:29.689Z,7.32
2023-04-03T14:21:56.826Z,7.52
2023-04-03T14:24:24.675Z,7.27
2023-04-03T14:26:53.390Z,6.72
2023-04-03T14:29:20.714Z,6.60
2023-04-03T14:31:48.942Z,7.27
2023-04-03T14:34:17.109Z,6.80
2023-04-03T14:36:45.543Z,6.75
2023-04-03T14:39:17.751Z,7.05
2023-04-03T14:41:44.794Z,7.17
2023-04-03T14:44:11.118Z,7.36
2023-04-03T14:46:55.520Z,7.22
2023-04-03T14:49:26.431Z,7.59
2023-04-03T14:51:53.316Z,7.35
2023-04-03T14:54:21.706Z,6.66
2023-04-03T14:56:48.636Z,6.67
2023-04-03T14:59:15.705Z,6.63
2023-04-03T15:01:42.392Z,6.38
2023-04-03T15:04:15.215Z,6.14
2023-04-03T15:06:42.964Z,6.09
2023-04-03T15:09:21.877Z,5.85
2023-04-03T15:11:49.701Z,5.95
2023-04-03T15:14:24.338Z,5.99
2023-04-03T15:17:02.222Z,6.30
2023-04-03T15:19:28.519Z,6.90
2023-04-03T15:21:54.816Z,7.23
2023-04-03T15:24:21.125Z,7.28
2023-04-03T15:26:47.467Z,7.22
2023-04-03T15:29:13.786Z,6.58
2023-04-03T15:31:40.135Z,6.63
2023-04-03T15:34:06.490Z,6.59
2023-04-03T15:36:34.650Z,6.86
2023-04-03T15:39:01.359Z,7.10
2023-04-03T15:41:27.673Z,7.66
2023-04-03T15:43:54.029Z,7.01
2023-04-03T15:46:20.513Z,7.32
2023-04-03T15:48:46.912Z,7.10
2023-04-03T15:51:13.242Z,7.23
2023-04-03T15:53:39.568Z,6.38
2023-04-03T15:56:05.961Z,6.45
2023-04-03T15:58:32.413Z,5.97
2023-04-03T16:00:58.831Z,5.97
2023-04-03T16:03:25.457Z,5.93
2023-04-03T16:05:52.203Z,6.28
2023-04-03T16:08:19.179Z,6.39
2023-04-03T16:10:45.586Z,6.58
2023-04-03T16:13:12.058Z,6.48
2023-04-03T16:15:38.849Z,6.69
2023-04-03T16:18:06.013Z,6.64
2023-04-03T16:20:32.921Z,6.49
2023-04-03T16:23:00.812Z,6.16
2023-04-03T16:25:27.555Z,5.98
2023-04-03T16:27:53.986Z,6.00
2023-04-03T16:30:20.393Z,5.74
2023-04-03T16:32:47.179Z,5.64
2023-04-03T16:35:13.548Z,5.50
2023-04-03T16:37:40.784Z,5.74
2023-04-03T16:40:08.479Z,5.73
2023-04-03T16:42:36.524Z,5.74
2023-04-03T16:45:04.018Z,5.99
2023-04-03T16:47:31.318Z,6.19
2023-04-03T16:49:57.799Z,6.45
2023-04-03T16:52:24.514Z,6.42
2023-04-03T16:54:50.955Z,6.34
2023-04-03T16:57:17.256Z,6.22
2023-04-03T16:59:43.592Z,6.30
2023-04-03T17:02:09.904Z,6.22
2023-04-03T17:04:36.244Z,6.27
2023-04-03T17:07:02.600Z,5.97
2023-04-03T17:09:28.907Z,5.79
2023-04-03T17:11:55.223Z,5.87
2023-04-03T17:14:21.568Z,5.68
2023-04-03T17:16:47.952Z,5.46
2023-04-03T17:19:14.409Z,5.45
2023-04-03T17:21:40.779Z,5.61
2023-04-03T17:24:09.713Z,5.49
2023-04-03T17:26:36.243Z,5.60
2023-04-03T17:29:03.320Z,5.61
2023-04-03T17:31:29.712Z,5.43
2023-04-03T17:33:56.150Z,5.44
2023-04-03T17:36:22.624Z,5.24
2023-04-03T17:38:51.486Z,5.18
2023-04-03T17:41:17.795Z,5.26
2023-04-03T17:43:44.145Z,5.41
2023-04-03T17:46:10.799Z,5.26
2023-04-03T17:48:39.860Z,4.93
2023-04-03T17:51:08.190Z,5.02
2023-04-03T17:53:34.585Z,4.92
2023-04-03T17:56:08.770Z,4.80
2023-04-03T17:58:35.905Z,4.69
2023-04-03T18:01:16.860Z,4.88
2023-04-03T18:03:44.333Z,4.79
2023-04-03T18:06:14.373Z,4.77
2023-04-03T18:08:49.619Z,4.64
2023-04-03T18:11:16.666Z,4.60
2023-04-03T18:13:44.211Z,4.53
2023-04-03T18:16:11.983Z,4.53
2023-04-03T18:18:38.646Z,4.47
2023-04-03T18:21:08.157Z,4.36
2023-04-03T18:23:36.536Z,4.54
2023-04-03T18:26:03.825Z,4.30
2023-04-03T18:28:31.700Z,4.18
2023-04-03T18:31:00.337Z,4.12
2023-04-03T18:33:26.656Z,4.12
2023-04-03T18:35:53.017Z,4.19
2023-04-03T18:38:19.371Z,4.13
2023-04-03T18:40:46.107Z,4.07
2023-04-03T18:43:13.179Z,3.89
2023-04-03T18:45:41.165Z,3.98
2023-04-03T18:48:07.748Z,3.79
2023-04-03T18:50:34.618Z,3.76
2023-04-03T18:53:00.959Z,3.72
2023-04-03T18:55:27.299Z,3.79
2023-04-03T18:57:53.621Z,3.81
2023-04-03T19:00:20.077Z,3.75
2023-04-03T19:02:46.605Z,3.63
2023-04-03T19:05:15.364Z,3.54
2023-04-03T19:07:43.992Z,3.60
2023-04-03T19:10:14.900Z,3.57
2023-04-03T19:12:41.203Z,3.40
2023-04-03T19:15:07.744Z,3.51
2023-04-03T19:17:34.089Z,3.39
2023-04-03T19:20:00.507Z,3.34
2023-04-03T19:22:26.827Z,3.34
2023-04-03T19:24:53.172Z,3.33
2023-04-03T19:27:19.471Z,3.17
2023-04-03T19:29:49.051Z,3.12
2023-04-03T19:32:15.511Z,3.08
2023-04-03T19:34:41.856Z,3.10
2023-04-03T19:37:08.243Z,3.02
2023-04-03T19:39:37.657Z,3.16
2023-04-03T19:42:05.096Z,3.01
2023-04-03T19:44:33.602Z,2.91
2023-04-03T19:47:00.466Z,2.96
2023-04-03T19:49:27.032Z,2.76
2023-04-03T19:51:53.796Z,2.79
2023-04-03T19:54:21.351Z,2.63
2023-04-03T19:56:47.794Z,2.62
2023-04-03T19:59:14.409Z,2.55
2023-04-03T20:01:40.777Z,2.57
2023-04-03T20:04:07.168Z,2.46
2023-04-03T20:06:33.815Z,2.51
2023-04-03T20:09:00.342Z,2.52
2023-04-03T20:11:26.733Z,2.60
2023-04-03T20:13:54.811Z,2.60
2023-04-03T20:16:22.690Z,2.41
2023-04-03T20:18:51.092Z,2.34
2023-04-03T20:21:18.762Z,2.15
2023-04-03T20:23:45.067Z,2.11
2023-04-03T20:26:20.426Z,2.18
2023-04-03T20:28:46.772Z,2.27
2023-04-03T20:31:13.116Z,2.21
2023-04-03T20:33:39.457Z,2.26
2023-04-03T20:36:05.958Z,2.22
2023-04-03T20:38:32.343Z,2.16
2023-04-03T20:40:58.633Z,2.02
2023-04-03T20:43:24.932Z,1.92
2023-04-03T20:45:51.393Z,1.68
2023-04-03T20:48:18.659Z,1.62
2023-04-03T20:50:45.850Z,1.67
2023-04-03T20:53:12.523Z,1.61
2023-04-03T20:55:38.974Z,1.70
2023-04-03T20:58:05.287Z,1.77
2023-04-03T21:00:31.623Z,1.60
2023-04-03T21:02:58.987Z,1.69
2023-04-03T21:05:25.345Z,1.63
2023-04-03T21:08:29.446Z,1.52
2023-04-03T21:11:33.091Z,1.52
2023-04-03T21:14:36.876Z,1.50
2023-04-03T21:17:03.185Z,1.35
2023-04-03T21:19:29.625Z,1.38
2023-04-03T21:21:59.662Z,1.34
2023-04-03T21:24:26.222Z,1.27
2023-04-03T21:26:52.616Z,1.04
2023-04-03T21:29:18.919Z,1.02
2023-04-03T21:31:59.681Z,1.03
2023-04-03T21:34:30.136Z,1.21
2023-04-03T21:37:01.002Z,1.01
2023-04-03T21:39:27.305Z,0.97
2023-04-03T21:41:53.644Z,0.98
2023-04-03T21:44:20.724Z,1.03
2023-04-03T21:46:47.970Z,0.84
2023-04-03T21:49:14.356Z,0.93
2023-04-03T21:51:40.679Z,1.06
2023-04-03T21:54:07.042Z,1.03
2023-04-03T21:56:33.411Z,0.95
2023-04-03T21:59:03.646Z,0.90
2023-04-03T22:01:30.185Z,0.80
2023-04-03T22:03:57.702Z,0.57
2023-04-03T22:06:24.507Z,0.82
2023-04-03T22:08:50.912Z,0.87
2023-04-03T22:11:17.372Z,0.69
2023-04-03T22:13:44.526Z,0.52
2023-04-03T22:16:11.973Z,0.72
2023-04-03T22:18:38.612Z,0.81
2023-04-03T22:21:05.503Z,0.75
2023-04-03T22:23:31.855Z,0.70
2023-04-03T22:26:03.903Z,0.67
2023-04-03T22:28:32.502Z,0.63
2023-04-03T22:31:02.830Z,0.61
2023-04-03T22:33:29.903Z,0.51
2023-04-03T22:35:56.609Z,0.52
2023-04-03T22:38:22.976Z,0.38
2023-04-03T22:40:57.425Z,0.44
2023-04-03T22:43:23.889Z,0.39
2023-04-03T22:45:50.211Z,0.47
2023-04-03T22:48:16.994Z,0.45
2023-04-03T22:50:43.615Z,0.41
2023-04-03T22:53:10.261Z,0.28
2023-04-03T22:55:36.858Z,0.30
2023-04-03T22:58:03.846Z,0.20
2023-04-03T23:00:30.397Z,0.08
2023-04-03T23:03:01.176Z,-0.09
2023-04-03T23:05:28.412Z,-0.16
2023-04-03T23:07:54.906Z,-0.13
2023-04-03T23:10:21.828Z,-0.03
2023-04-03T23:12:48.228Z,-0.27
2023-04-03T23:15:14.550Z,-0.04
2023-04-03T23:17:40.912Z,0.02
2023-04-03T23:20:07.723Z,0.06
2023-04-03T23:22:34.027Z,0.05
2023-04-03T23:25:00.339Z,-0.07
2023-04-03T23:27:26.634Z,-0.13
2023-04-03T23:29:52.958Z,-0.06
2023-04-03T23:32:19.251Z,-0.09
2023-04-03T23:34:45.600Z,-0.38
2023-04-03T23:37:12.344Z,-0.17
2023-04-03T23:39:38.636Z,-0.31
2023-04-03T23:42:05.067Z,-0.14
2023-04-03T23:44:31.457Z,-0.07
2023-04-03T23:46:57.748Z,-0.22
2023-04-03T23:49:24.059Z,-0.33
2023-04-03T23:51:50.404Z,-0.31
2023-04-03T23:54:16.722Z,-0.32
2023-04-03T23:56:43.030Z,-0.34
2023-04-03T23:59:09.384Z,-0.31
